createdAt,value
2023-02-19T00:00:45.753Z,38.96
2023-02-19T00:03:12.069Z,39.37
2023-02-19T00:05:38.440Z,39.05
2023-02-19T00:08:04.827Z,39.45
2023-02-19T00:10:31.127Z,39.61
2023-02-19T00:12:57.427Z,39.50
2023-02-19T00:15:23.777Z,39.17
2023-02-19T00:17:50.164Z,39.07
2023-02-19T00:20:16.535Z,39.79
2023-02-19T00:22:42.833Z,39.39
2023-02-19T00:25:09.130Z,39.43
2023-02-19T00:27:35.515Z,39.79
2023-02-19T00:30:01.899Z,39.54
2023-02-19T00:32:28.288Z,39.82
2023-02-19T00:34:54.642Z,39.38
2023-02-19T00:37:21.022Z,39.81
2023-02-19T00:39:47.351Z,39.90
2023-02-19T00:42:13.702Z,39.39
2023-02-19T00:44:40.026Z,39.82
2023-02-19T00:47:06.381Z,39.69
2023-02-19T00:49:32.714Z,39.99
2023-02-19T00:51:59.027Z,39.80
2023-02-19T00:54:25.358Z,40.09
2023-02-19T00:56:51.741Z,39.72
2023-02-19T00:59:18.064Z,39.85
2023-02-19T01:01:44.493Z,39.72
2023-02-19T01:04:10.998Z,39.88
2023-02-19T01:06:37.367Z,40.26
2023-02-19T01:09:03.696Z,40.27
2023-02-19T01:11:30.072Z,40.17
2023-02-19T01:13:56.430Z,40.14
2023-02-19T01:16:22.802Z,40.21
2023-02-19T01:18:49.212Z,40.49
2023-02-19T01:21:15.554Z,39.69
2023-02-19T01:23:41.855Z,39.77
2023-02-19T01:26:08.192Z,39.99
2023-02-19T01:28:34.498Z,39.95
2023-02-19T01:31:00.887Z,39.85
2023-02-19T01:33:27.285Z,40.49
2023-02-19T01:35:53.641Z,40.07
2023-02-19T01:38:20.023Z,40.02
2023-02-19T01:40:46.338Z,40.53
2023-02-19T01:43:12.626Z,40.30
2023-02-19T01:45:38.933Z,40.48
2023-02-19T01:48:05.344Z,40.51
2023-02-19T01:50:31.695Z,40.23
2023-02-19T01:52:57.993Z,39.80
2023-02-19T01:55:24.298Z,39.98
2023-02-19T01:57:50.656Z,40.11
2023-02-19T02:00:16.971Z,40.45
2023-02-19T02:02:43.296Z,40.38
2023-02-19T02:05:09.639Z,40.44
2023-02-19T02:07:35.934Z,40.25
2023-02-19T02:10:02.249Z,40.40
2023-02-19T02:12:28.573Z,40.23
2023-02-19T02:14:54.902Z,39.98
2023-02-19T02:17:21.233Z,40.26
2023-02-19T02:19:47.564Z,40.19
2023-02-19T02:22:13.911Z,40.15
2023-02-19T02:24:40.222Z,40.58
2023-02-19T02:27:06.532Z,40.11
2023-02-19T02:29:32.888Z,40.50
2023-02-19T02:31:59.338Z,40.42
2023-02-19T02:34:25.774Z,40.32
2023-02-19T02:36:52.254Z,40.23
2023-02-19T02:39:18.595Z,40.22
2023-02-19T02:41:44.958Z,40.09
2023-02-19T02:44:11.388Z,40.51
2023-02-19T02:46:37.756Z,40.53
2023-02-19T02:49:04.050Z,40.29
2023-02-19T02:51:30.356Z,40.38
2023-02-19T02:53:56.718Z,40.01
2023-02-19T02:56:23.093Z,40.60
2023-02-19T02:58:49.420Z,40.28
2023-02-19T03:01:15.805Z,40.42
2023-02-19T03:03:42.184Z,40.29
2023-02-19T03:06:08.554Z,40.22
2023-02-19T03:08:34.880Z,40.16
2023-02-19T03:11:01.223Z,40.53
2023-02-19T03:13:27.583Z,40.28
2023-02-19T03:15:53.896Z,40.39
2023-02-19T03:18:20.236Z,40.05
2023-02-19T03:20:46.537Z,40.41
2023-02-19T03:23:12.909Z,39.98
2023-02-19T03:25:39.284Z,40.28
2023-02-19T03:28:05.652Z,40.00
2023-02-19T03:30:32.081Z,40.07
2023-02-19T03:32:58.464Z,40.08
2023-02-19T03:35:24.782Z,40.23
2023-02-19T03:37:51.124Z,40.41
2023-02-19T03:40:17.433Z,40.24
2023-02-19T03:42:43.787Z,40.06
2023-02-19T03:45:10.124Z,40.53
2023-02-19T03:47:36.419Z,40.38
2023-02-19T03:50:02.716Z,40.35
2023-02-19T03:52:29.042Z,40.07
2023-02-19T03:54:55.347Z,40.34
2023-02-19T03:57:21.704Z,39.95
2023-02-19T03:59:48.060Z,40.29
2023-02-19T04:02:14.368Z,40.09
2023-02-19T04:04:40.825Z,39.85
2023-02-19T04:07:07.195Z,39.70
2023-02-19T04:09:33.529Z,40.23
2023-02-19T04:11:59.836Z,39.96
2023-02-19T04:14:26.160Z,39.93
2023-02-19T04:16:52.538Z,40.21
2023-02-19T04:19:18.972Z,40.13
2023-02-19T04:21:45.321Z,39.91
2023-02-19T04:24:11.664Z,40.11
2023-02-19T04:26:38.010Z,39.79
2023-02-19T04:29:04.364Z,39.72
2023-02-19T04:31:30.853Z,40.02
2023-02-19T04:33:57.211Z,40.01
2023-02-19T04:36:23.579Z,39.55
2023-02-19T04:38:49.943Z,39.76
2023-02-19T04:41:16.272Z,39.55
2023-02-19T04:43:42.627Z,39.87
2023-02-19T04:46:08.966Z,39.73
2023-02-19T04:48:35.335Z,39.28
2023-02-19T04:51:01.669Z,39.36
2023-02-19T04:53:27.973Z,39.32
2023-02-19T04:55:54.352Z,39.53
2023-02-19T04:58:20.718Z,39.33
2023-02-19T05:00:47.040Z,39.29
2023-02-19T05:03:13.323Z,39.25
2023-02-19T05:05:39.676Z,39.29
2023-02-19T05:08:05.993Z,39.10
2023-02-19T05:10:32.318Z,38.87
2023-02-19T05:12:58.601Z,39.12
2023-02-19T05:15:24.900Z,38.79
2023-02-19T05:17:51.202Z,39.24
2023-02-19T05:20:17.488Z,39.02
2023-02-19T05:22:43.816Z,39.19
2023-02-19T05:25:10.112Z,39.04
2023-02-19T05:27:36.450Z,38.93
2023-02-19T05:30:02.866Z,38.82
2023-02-19T05:32:29.282Z,38.82
2023-02-19T05:34:55.648Z,39.14
2023-02-19T05:37:21.956Z,38.96
2023-02-19T05:39:48.254Z,38.74
2023-02-19T05:42:14.561Z,38.82
2023-02-19T05:44:40.920Z,39.09
2023-02-19T05:47:07.223Z,38.73
2023-02-19T05:49:33.523Z,38.81
2023-02-19T05:51:59.887Z,39.21
2023-02-19T05:54:26.260Z,38.94
2023-02-19T05:56:52.618Z,38.97
2023-02-19T05:59:18.967Z,39.01
2023-02-19T06:01:45.306Z,38.86
2023-02-19T06:04:11.655Z,39.14
2023-02-19T06:06:38.049Z,39.16
2023-02-19T06:09:04.361Z,39.07
2023-02-19T06:11:30.750Z,39.12
2023-02-19T06:13:57.059Z,39.02
2023-02-19T06:16:23.409Z,39.01
2023-02-19T06:18:49.781Z,38.87
2023-02-19T06:21:16.163Z,39.06
2023-02-19T06:23:42.552Z,39.03
2023-02-19T06:26:08.834Z,39.17
2023-02-19T06:28:35.203Z,39.11
2023-02-19T06:31:01.556Z,38.78
2023-02-19T06:33:27.872Z,38.88
2023-02-19T06:35:54.210Z,38.42
2023-02-19T06:38:20.547Z,38.82
2023-02-19T06:40:46.849Z,38.80
2023-02-19T06:43:13.151Z,38.54
2023-02-19T06:45:39.497Z,38.72
2023-02-19T06:48:05.800Z,38.51
2023-02-19T06:50:32.185Z,38.70
2023-02-19T06:52:58.547Z,38.53
2023-02-19T06:55:24.913Z,38.74
2023-02-19T06:57:51.261Z,38.80
2023-02-19T07:00:17.614Z,38.30
2023-02-19T07:02:43.956Z,38.62
2023-02-19T07:05:10.346Z,38.60
2023-02-19T07:07:36.681Z,38.36
2023-02-19T07:10:03.030Z,38.29
2023-02-19T07:12:29.379Z,38.34
2023-02-19T07:14:55.710Z,38.45
2023-02-19T07:17:22.053Z,38.26
2023-02-19T07:19:48.433Z,38.08
2023-02-19T07:22:14.783Z,38.41
2023-02-19T07:24:41.124Z,38.10
2023-02-19T07:27:07.516Z,38.46
2023-02-19T07:29:33.834Z,38.37
2023-02-19T07:32:00.246Z,38.17
2023-02-19T07:34:26.606Z,38.30
2023-02-19T07:36:53.011Z,38.38
2023-02-19T07:39:19.380Z,38.01
2023-02-19T07:41:45.732Z,38.24
2023-02-19T07:44:12.091Z,38.04
2023-02-19T07:46:38.474Z,38.35
2023-02-19T07:49:04.789Z,38.22
2023-02-19T07:51:31.091Z,37.92
2023-02-19T07:53:57.437Z,38.00
2023-02-19T07:56:23.803Z,38.19
2023-02-19T07:58:50.121Z,38.14
2023-02-19T08:01:16.497Z,38.06
2023-02-19T08:03:42.954Z,38.32
2023-02-19T08:06:09.315Z,38.22
2023-02-19T08:08:35.654Z,38.13
2023-02-19T08:11:02.037Z,37.82
2023-02-19T08:13:28.391Z,38.35
2023-02-19T08:15:57.765Z,37.92
2023-02-19T08:18:28.122Z,37.83
2023-02-19T08:20:54.466Z,37.85
2023-02-19T08:23:20.795Z,37.95
2023-02-19T08:25:47.154Z,37.72
2023-02-19T08:28:13.506Z,37.98
2023-02-19T08:30:39.997Z,38.16
2023-02-19T08:33:06.393Z,38.11
2023-02-19T08:35:32.686Z,37.83
2023-02-19T08:37:59.052Z,37.69
2023-02-19T08:40:25.445Z,37.92
2023-02-19T08:42:51.848Z,38.02
2023-02-19T08:45:18.162Z,37.94
2023-02-19T08:47:44.500Z,37.40
2023-02-19T08:50:10.815Z,37.57
2023-02-19T08:52:37.154Z,37.60
2023-02-19T08:55:03.528Z,37.77
2023-02-19T08:57:30.218Z,37.66
2023-02-19T08:59:56.538Z,37.54
2023-02-19T09:02:22.838Z,37.65
2023-02-19T09:04:49.204Z,37.22
2023-02-19T09:07:15.573Z,37.51
2023-02-19T09:09:41.897Z,37.62
2023-02-19T09:12:08.191Z,37.26
2023-02-19T09:14:34.560Z,37.35
2023-02-19T09:17:00.886Z,37.43
2023-02-19T09:19:27.180Z,37.43
2023-02-19T09:21:53.505Z,37.31
2023-02-19T09:24:19.880Z,36.94
2023-02-19T09:26:46.346Z,37.35
2023-02-19T09:29:12.723Z,37.33
2023-02-19T09:31:39.137Z,36.99
2023-02-19T09:34:05.554Z,37.34
2023-02-19T09:36:31.893Z,36.83
2023-02-19T09:38:58.271Z,37.16
2023-02-19T09:41:24.574Z,36.83
2023-02-19T09:43:50.914Z,37.02
2023-02-19T09:46:17.472Z,36.96
2023-02-19T09:48:43.808Z,36.95
2023-02-19T09:51:10.382Z,37.26
2023-02-19T09:53:36.844Z,36.83
2023-02-19T09:56:03.183Z,36.82
2023-02-19T09:58:29.490Z,37.21
2023-02-19T10:00:55.908Z,37.06
2023-02-19T10:03:22.249Z,36.83
2023-02-19T10:05:48.564Z,37.05
2023-02-19T10:08:14.882Z,36.98
2023-02-19T10:10:41.188Z,37.09
2023-02-19T10:13:07.555Z,36.96
2023-02-19T10:15:33.908Z,36.79
2023-02-19T10:18:00.209Z,36.80
2023-02-19T10:20:26.622Z,36.75
2023-02-19T10:22:52.932Z,36.89
2023-02-19T10:25:19.221Z,36.31
2023-02-19T10:27:45.573Z,36.10
2023-02-19T10:30:11.899Z,36.41
2023-02-19T10:32:38.525Z,36.20
2023-02-19T10:35:04.903Z,36.44
2023-02-19T10:37:31.213Z,36.42
2023-02-19T10:39:57.526Z,36.39
2023-02-19T10:42:23.912Z,36.49
2023-02-19T10:44:50.302Z,36.39
2023-02-19T10:47:16.646Z,36.19
2023-02-19T10:49:43.011Z,36.34
2023-02-19T10:52:09.323Z,36.59
2023-02-19T10:54:35.683Z,36.61
2023-02-19T10:57:01.975Z,36.74
2023-02-19T10:59:28.310Z,36.63
2023-02-19T11:01:54.660Z,36.72
2023-02-19T11:04:21.040Z,36.51
2023-02-19T11:06:47.416Z,36.66
2023-02-19T11:09:13.763Z,36.60
2023-02-19T11:11:40.132Z,36.69
2023-02-19T11:14:06.474Z,36.75
2023-02-19T11:16:32.821Z,36.79
2023-02-19T11:18:59.214Z,36.74
2023-02-19T11:21:25.588Z,36.53
2023-02-19T11:23:51.955Z,36.40
2023-02-19T11:26:18.333Z,36.35
2023-02-19T11:28:44.654Z,36.62
2023-02-19T11:31:11.422Z,36.75
2023-02-19T11:33:37.919Z,36.56
2023-02-19T11:36:04.318Z,36.50
2023-02-19T11:38:30.627Z,36.58
2023-02-19T11:40:56.991Z,36.45
2023-02-19T11:43:23.366Z,36.37
2023-02-19T11:45:49.690Z,36.29
2023-02-19T11:48:16.047Z,36.23
2023-02-19T11:50:42.489Z,36.45
2023-02-19T11:53:08.840Z,36.59
2023-02-19T11:55:35.215Z,36.37
2023-02-19T11:58:01.601Z,36.62
2023-02-19T12:00:27.918Z,36.38
2023-02-19T12:02:54.282Z,36.66
2023-02-19T12:05:20.716Z,36.63
2023-02-19T12:07:47.082Z,36.68
2023-02-19T12:10:13.514Z,36.68
2023-02-19T12:12:39.907Z,36.80
2023-02-19T12:15:06.290Z,36.91
2023-02-19T12:17:32.678Z,36.89
2023-02-19T12:19:59.068Z,36.85
2023-02-19T12:22:25.441Z,36.69
2023-02-19T12:24:51.823Z,36.68
2023-02-19T12:27:18.172Z,36.98
2023-02-19T12:29:44.515Z,36.84
2023-02-19T12:32:10.949Z,36.52
2023-02-19T12:34:37.316Z,36.54
2023-02-19T12:37:03.627Z,36.45
2023-02-19T12:39:29.940Z,36.67
2023-02-19T12:41:56.303Z,36.55
2023-02-19T12:44:22.607Z,36.68
2023-02-19T12:46:48.906Z,36.38
2023-02-19T12:49:15.245Z,36.64
2023-02-19T12:51:41.890Z,36.19
2023-02-19T12:54:08.240Z,36.15
2023-02-19T12:56:34.553Z,36.39
2023-02-19T12:59:00.847Z,35.84
2023-02-19T13:01:27.260Z,36.11
2023-02-19T13:03:53.650Z,35.85
2023-02-19T13:06:20.020Z,36.40
2023-02-19T13:09:05.335Z,36.12
2023-02-19T13:11:32.572Z,36.07
2023-02-19T13:13:58.911Z,36.23
2023-02-19T13:16:25.322Z,36.35
2023-02-19T13:18:51.637Z,36.35
2023-02-19T13:21:17.987Z,36.08
2023-02-19T13:23:44.391Z,36.14
2023-02-19T13:26:10.949Z,36.26
2023-02-19T13:28:37.437Z,36.20
2023-02-19T13:31:03.858Z,35.80
2023-02-19T13:33:30.186Z,36.23
2023-02-19T13:35:56.520Z,36.14
2023-02-19T13:38:22.880Z,35.73
2023-02-19T13:40:49.199Z,36.12
2023-02-19T13:43:15.547Z,36.08
2023-02-19T13:45:41.897Z,35.66
2023-02-19T13:48:08.266Z,36.07
2023-02-19T13:50:34.614Z,35.60
2023-02-19T13:53:00.976Z,35.66
2023-02-19T13:55:27.363Z,35.97
2023-02-19T13:57:53.725Z,36.02
2023-02-19T14:00:20.078Z,35.81
2023-02-19T14:02:46.446Z,36.02
2023-02-19T14:05:12.766Z,35.69
2023-02-19T14:07:39.080Z,35.98
2023-02-19T14:10:05.397Z,35.61
2023-02-19T14:12:31.709Z,36.00
2023-02-19T14:14:58.144Z,35.59
2023-02-19T14:17:24.455Z,35.85
2023-02-19T14:19:50.768Z,36.00
2023-02-19T14:22:17.095Z,35.97
2023-02-19T14:24:43.416Z,35.78
2023-02-19T14:27:09.714Z,35.96
2023-02-19T14:29:37.203Z,36.11
2023-02-19T14:32:03.620Z,36.01
2023-02-19T14:34:30.014Z,35.74
2023-02-19T14:36:56.330Z,35.86
2023-02-19T14:39:22.647Z,35.99
2023-02-19T14:41:49.012Z,35.90
2023-02-19T14:44:15.324Z,35.97
2023-02-19T14:46:41.761Z,35.98
2023-02-19T14:49:08.169Z,35.52
2023-02-19T14:51:34.507Z,35.83
2023-02-19T14:54:00.863Z,35.45
2023-02-19T14:56:27.257Z,35.88
2023-02-19T14:58:53.608Z,35.88
2023-02-19T15:01:19.965Z,35.49
2023-02-19T15:03:46.422Z,35.82
2023-02-19T15:06:12.762Z,35.80
2023-02-19T15:08:39.133Z,35.92
2023-02-19T15:11:05.512Z,35.42
2023-02-19T15:13:31.862Z,35.65
2023-02-19T15:15:58.217Z,35.71
2023-02-19T15:18:24.629Z,35.90
2023-02-19T15:20:50.931Z,35.56
2023-02-19T15:23:17.283Z,35.60
2023-02-19T15:25:43.653Z,35.74
2023-02-19T15:28:09.956Z,35.68
2023-02-19T15:30:36.286Z,35.31
2023-02-19T15:33:02.622Z,35.49
2023-02-19T15:35:28.944Z,35.18
2023-02-19T15:37:55.339Z,35.25
2023-02-19T15:40:21.701Z,35.23
2023-02-19T15:42:48.024Z,35.74
2023-02-19T15:45:14.396Z,35.53
2023-02-19T15:47:40.770Z,35.30
2023-02-19T15:50:07.091Z,35.36
2023-02-19T15:52:33.416Z,35.61
2023-02-19T15:54:59.765Z,35.42
2023-02-19T15:57:26.122Z,35.01
2023-02-19T15:59:52.474Z,35.01
2023-02-19T16:02:18.832Z,35.21
2023-02-19T16:04:45.150Z,35.45
2023-02-19T16:07:11.503Z,35.30
2023-02-19T16:09:37.863Z,35.14
2023-02-19T16:12:04.282Z,35.13
2023-02-19T16:14:30.640Z,35.30
2023-02-19T16:16:57.014Z,35.43
2023-02-19T16:19:23.401Z,35.71
2023-02-19T16:21:49.753Z,35.06
2023-02-19T16:24:16.140Z,35.19
2023-02-19T16:26:42.565Z,35.44
2023-02-19T16:29:08.973Z,35.29
2023-02-19T16:31:35.360Z,35.30
2023-02-19T16:34:01.727Z,35.72
2023-02-19T16:36:28.082Z,35.69
2023-02-19T16:38:54.383Z,35.30
2023-02-19T16:41:20.692Z,35.33
2023-02-19T16:43:46.999Z,35.24
2023-02-19T16:46:13.310Z,35.37
2023-02-19T16:48:39.677Z,35.28
2023-02-19T16:51:06.031Z,35.76
2023-02-19T16:53:32.338Z,35.36
2023-02-19T16:55:58.650Z,35.30
2023-02-19T16:58:24.964Z,35.72
2023-02-19T17:00:51.320Z,35.82
2023-02-19T17:03:17.717Z,35.74
2023-02-19T17:05:44.028Z,35.58
2023-02-19T17:08:10.329Z,35.50
2023-02-19T17:10:36.686Z,35.58
2023-02-19T17:13:03.005Z,35.78
2023-02-19T17:15:29.430Z,35.93
2023-02-19T17:17:55.751Z,35.49
2023-02-19T17:20:22.070Z,35.49
2023-02-19T17:22:48.418Z,35.55
2023-02-19T17:25:14.770Z,35.88
2023-02-19T17:27:41.193Z,35.71
2023-02-19T17:30:07.582Z,35.63
2023-02-19T17:32:34.060Z,36.01
2023-02-19T17:35:00.546Z,36.04
2023-02-19T17:37:26.998Z,36.04
2023-02-19T17:39:53.312Z,35.55
2023-02-19T17:42:19.628Z,35.71
2023-02-19T17:44:45.944Z,35.64
2023-02-19T17:47:12.246Z,35.52
2023-02-19T17:49:38.580Z,35.82
2023-02-19T17:52:04.883Z,35.62
2023-02-19T17:54:31.215Z,35.55
2023-02-19T17:56:57.585Z,35.50
2023-02-19T17:59:23.894Z,35.73
2023-02-19T18:01:50.260Z,35.96
2023-02-19T18:04:16.651Z,35.92
2023-02-19T18:06:42.973Z,35.62
2023-02-19T18:09:09.319Z,36.05
2023-02-19T18:11:37.332Z,35.82
2023-02-19T18:14:03.784Z,36.10
2023-02-19T18:16:30.126Z,35.56
2023-02-19T18:18:56.477Z,35.93
2023-02-19T18:21:22.812Z,35.76
2023-02-19T18:23:49.173Z,36.00
2023-02-19T18:26:15.479Z,36.05
2023-02-19T18:28:41.826Z,35.97
2023-02-19T18:31:08.191Z,35.89
2023-02-19T18:33:34.575Z,36.07
2023-02-19T18:36:01.084Z,35.73
2023-02-19T18:38:27.456Z,35.86
2023-02-19T18:40:53.841Z,35.97
2023-02-19T18:43:20.153Z,36.03
2023-02-19T18:45:46.535Z,35.94
2023-02-19T18:48:12.906Z,36.10
2023-02-19T18:50:39.313Z,35.73
2023-02-19T18:53:05.659Z,36.06
2023-02-19T18:55:31.969Z,35.64
2023-02-19T18:57:58.268Z,35.70
2023-02-19T19:00:24.590Z,36.02
2023-02-19T19:02:51.456Z,35.77
2023-02-19T19:05:17.925Z,35.94
2023-02-19T19:07:44.230Z,36.01
2023-02-19T19:10:10.603Z,36.07
2023-02-19T19:12:36.934Z,36.15
2023-02-19T19:15:03.225Z,35.96
2023-02-19T19:17:29.853Z,35.83
2023-02-19T19:19:56.196Z,35.98
2023-02-19T19:22:22.499Z,36.10
2023-02-19T19:24:48.805Z,35.84
2023-02-19T19:27:15.389Z,35.68
2023-02-19T19:29:41.794Z,36.00
2023-02-19T19:32:08.891Z,35.82
2023-02-19T19:34:35.348Z,35.78
2023-02-19T19:37:01.659Z,35.64
2023-02-19T19:39:27.980Z,36.04
2023-02-19T19:41:54.328Z,35.56
2023-02-19T19:44:20.717Z,35.78
2023-02-19T19:46:47.062Z,36.08
2023-02-19T19:49:13.379Z,36.18
2023-02-19T19:51:39.740Z,36.08
2023-02-19T19:54:06.283Z,36.07
2023-02-19T19:56:32.591Z,35.99
2023-02-19T19:58:58.951Z,35.55
2023-02-19T20:01:25.421Z,35.82
2023-02-19T20:03:51.781Z,35.63
2023-02-19T20:06:18.100Z,36.01
2023-02-19T20:08:44.468Z,35.85
2023-02-19T20:11:11.134Z,35.87
2023-02-19T20:13:37.758Z,35.78
2023-02-19T20:16:04.141Z,35.87
2023-02-19T20:18:30.539Z,35.74
2023-02-19T20:20:56.907Z,36.10
2023-02-19T20:23:23.282Z,35.88
2023-02-19T20:25:49.622Z,35.97
2023-02-19T20:28:15.931Z,35.91
2023-02-19T20:30:42.373Z,35.91
2023-02-19T20:33:08.758Z,36.16
2023-02-19T20:35:35.075Z,35.85
2023-02-19T20:38:01.401Z,36.19
2023-02-19T20:40:27.708Z,36.30
2023-02-19T20:42:54.037Z,36.03
2023-02-19T20:45:20.387Z,35.75
2023-02-19T20:47:46.705Z,35.83
2023-02-19T20:50:13.090Z,35.94
2023-02-19T20:52:39.394Z,36.11
2023-02-19T20:55:05.716Z,35.83
2023-02-19T20:57:32.205Z,36.14
2023-02-19T20:59:58.662Z,35.66
2023-02-19T21:02:25.024Z,35.69
2023-02-19T21:04:51.440Z,35.99
2023-02-19T21:07:17.764Z,36.15
2023-02-19T21:09:44.125Z,35.80
2023-02-19T21:12:10.513Z,36.08
2023-02-19T21:14:36.816Z,36.02
2023-02-19T21:17:03.296Z,35.75
2023-02-19T21:19:29.696Z,36.27
2023-02-19T21:21:56.018Z,36.19
2023-02-19T21:24:22.364Z,35.85
2023-02-19T21:26:48.689Z,36.11
2023-02-19T21:29:15.009Z,36.01
2023-02-19T21:31:41.479Z,36.21
2023-02-19T21:34:07.843Z,36.32
2023-02-19T21:36:34.200Z,36.23
2023-02-19T21:39:00.605Z,36.09
2023-02-19T21:41:26.964Z,35.85
2023-02-19T21:43:53.320Z,35.83
2023-02-19T21:46:19.690Z,35.92
2023-02-19T21:48:46.053Z,36.10
2023-02-19T21:51:12.371Z,35.88
2023-02-19T21:53:38.699Z,35.86
2023-02-19T21:56:05.077Z,35.63
2023-02-19T21:58:31.408Z,35.78
2023-02-19T22:00:57.867Z,35.71
2023-02-19T22:03:24.315Z,35.84
2023-02-19T22:05:50.663Z,35.93
2023-02-19T22:08:16.975Z,36.09
2023-02-19T22:10:43.295Z,35.68
2023-02-19T22:13:09.669Z,36.15
2023-02-19T22:15:36.046Z,35.75
2023-02-19T22:18:02.350Z,36.10
2023-02-19T22:20:28.803Z,36.28
2023-02-19T22:22:55.118Z,36.10
2023-02-19T22:25:21.408Z,35.88
2023-02-19T22:27:47.772Z,36.14
2023-02-19T22:30:14.135Z,36.04
2023-02-19T22:32:40.576Z,36.34
2023-02-19T22:35:07.209Z,35.96
2023-02-19T22:37:33.603Z,36.24
2023-02-19T22:39:59.961Z,36.02
2023-02-19T22:42:26.278Z,36.04
2023-02-19T22:44:52.627Z,35.81
2023-02-19T22:47:18.990Z,35.73
2023-02-19T22:49:45.336Z,36.12
2023-02-19T22:52:11.702Z,36.14
2023-02-19T22:54:38.057Z,36.25
2023-02-19T22:57:04.436Z,36.26
2023-02-19T22:59:30.808Z,35.95
2023-02-19T23:01:57.171Z,35.96
2023-02-19T23:04:23.521Z,36.16
2023-02-19T23:06:49.920Z,35.96
2023-02-19T23:09:16.264Z,35.88
2023-02-19T23:11:42.623Z,36.01
2023-02-19T23:14:09.051Z,36.10
2023-02-19T23:16:35.480Z,35.72
2023-02-19T23:19:01.932Z,35.77
2023-02-19T23:21:28.287Z,35.99
2023-02-19T23:23:54.591Z,36.05
2023-02-19T23:26:20.947Z,36.16
2023-02-19T23:28:47.351Z,36.03
2023-02-19T23:31:13.830Z,35.79
2023-02-19T23:33:40.214Z,35.75
2023-02-19T23:36:06.563Z,36.19
2023-02-19T23:38:32.869Z,36.12
2023-02-19T23:40:59.220Z,35.88
2023-02-19T23:43:25.560Z,35.70
2023-02-19T23:45:51.947Z,36.22
2023-02-19T23:48:18.330Z,36.26
2023-02-19T23:50:44.646Z,36.17
2023-02-19T23:53:11.003Z,36.09
2023-02-19T23:55:37.330Z,36.11
2023-02-19T23:58:03.678Z,35.76
